Time;durP1;ratioP1;P1;durP2;ratioP2;P2;SDS_P1;SDS_P2;PMS_P1;PMS_P2;Temp;Humidity;BMP_temperature;BMP_pressure;BME280_temperature;BME280_humidity;BME280_pressure;Samples;Min_cycle;Max_cycle;Signal;HPM_P1;HPM_P2
2022/12/02 00:00:53;;;;;;;;;;;;;;;7.47;72.78;95467.66;5114834;28;1037;-66
2022/12/02 00:03:21;;;;;;;;;;;;;;;7.49;72.83;95464.88;5096700;28;1124;-66
2022/12/02 00:05:48;;;;;;;;;;;;;;;7.56;73.04;95466.84;5114720;28;1423;-66
2022/12/02 00:08:19;;;;;;;;;;;;;;;7.50;73.18;95466.56;5114634;28;1076;-66
2022/12/02 00:10:46;;;;;;;;;;;;;;;7.41;73.72;95470.88;5114834;28;1074;-66
2022/12/02 00:13:12;;;;;;;;;;;;;;;7.41;73.83;95468.22;5114648;28;1917;-66
2022/12/02 00:15:42;;;;;;;;;;;;;;;7.39;73.89;95464.84;5114335;28;1088;-66
2022/12/02 00:18:12;;;;;;;;;;;;;;;7.38;73.87;95469.31;5096486;28;1061;-66
2022/12/02 00:20:39;;;;;;;;;;;;;;;7.39;74.43;95460.34;5096663;28;977;-66
2022/12/02 00:23:05;;;;;;;;;;;;;;;7.28;74.88;95463.09;5114645;28;1005;-66
2022/12/02 00:25:32;;;;;;;;;;;;;;;7.32;74.83;95466.34;5114269;28;1037;-66
2022/12/02 00:27:59;;;;;;;;;;;;;;;7.31;75.13;95477.97;5114288;28;1060;-66
2022/12/02 00:30:27;;;;;;;;;;;;;;;7.39;74.36;95475.47;5096249;28;1166;-66
2022/12/02 00:32:53;;;;;;;;;;;;;;;7.47;73.89;95480.97;5114164;28;2000;-66
2022/12/02 00:35:20;;;;;;;;;;;;;;;7.53;73.89;95475.13;5114434;28;1074;-66
2022/12/02 00:37:46;;;;;;;;;;;;;;;7.46;73.85;95479.31;5114387;28;1032;-66
2022/12/02 00:40:12;;;;;;;;;;;;;;;7.43;74.17;95474.22;5114149;28;1173;-66
2022/12/02 00:42:38;;;;;;;;;;;;;;;7.41;74.35;95477.03;5114111;28;1072;-66
2022/12/02 00:47:49;;;;;;;;;;;;;;;7.29;75.20;95480.75;5113351;28;1012;-66
2022/12/02 00:50:15;;;;;;;;;;;;;;;7.32;75.50;95476.97;5114089;28;973;-65
2022/12/02 00:52:41;;;;;;;;;;;;;;;7.42;74.83;95480.53;5113771;28;1985;-66
2022/12/02 00:55:07;;;;;;;;;;;;;;;7.48;74.70;95482.66;5095837;28;1521;-66
2022/12/02 00:57:33;;;;;;;;;;;;;;;7.50;73.50;95478.06;5113864;28;1036;-66
2022/12/02 00:59:59;;;;;;;;;;;;;;;7.41;73.27;95476.19;5113837;28;957;-65
2022/12/02 01:02:25;;;;;;;;;;;;;;;7.41;73.74;95470.88;5114012;28;973;-66
2022/12/02 01:04:51;;;;;;;;;;;;;;;7.51;73.56;95470.91;5114069;28;1145;-66
2022/12/02 01:07:17;;;;;;;;;;;;;;;7.41;72.44;95465.53;5113723;28;1219;-66
2022/12/02 01:09:43;;;;;;;;;;;;;;;7.41;72.40;95470.88;5113885;28;1037;-66
2022/12/02 01:12:09;;;;;;;;;;;;;;;7.41;72.52;95471.69;5113647;28;1913;-66
2022/12/02 01:14:35;;;;;;;;;;;;;;;7.47;72.49;95465.00;5113651;28;977;-66
2022/12/02 01:17:01;;;;;;;;;;;;;;;7.56;71.66;95466.84;5113537;28;1116;-66
2022/12/02 01:19:27;;;;;;;;;;;;;;;7.56;72.36;95464.19;5113828;28;1395;-66
2022/12/02 01:21:53;;;;;;;;;;;;;;;7.55;72.39;95470.50;5113657;28;958;-66
2022/12/02 01:24:19;;;;;;;;;;;;;;;7.51;72.83;95466.44;5113671;28;982;-66
2022/12/02 01:26:45;;;;;;;;;;;;;;;7.42;72.90;95461.94;5113693;28;1045;-66
2022/12/02 01:29:11;;;;;;;;;;;;;;;7.40;72.63;95464.72;5095521;28;1087;-66
2022/12/02 01:31:38;;;;;;;;;;;;;;;7.44;72.75;95467.94;5095551;28;1184;-66
2022/12/02 01:34:04;;;;;;;;;;;;;;;7.46;72.55;95467.81;5095499;28;1970;-66
2022/12/02 01:36:30;;;;;;;;;;;;;;;7.52;73.12;95477.91;5113411;28;1792;-66
2022/12/02 01:38:56;;;;;;;;;;;;;;;7.51;72.41;95468.25;5113540;28;1197;-65
2022/12/02 01:41:22;;;;;;;;;;;;;;;7.49;72.69;95471.03;5113500;28;1052;-66
2022/12/02 01:43:48;;;;;;;;;;;;;;;7.47;72.90;95472.16;5113508;28;1023;-65
2022/12/02 01:46:14;;;;;;;;;;;;;;;7.40;73.25;95470.03;5113311;28;1057;-66
2022/12/02 01:48:40;;;;;;;;;;;;;;;7.49;72.80;95465.72;5113611;28;1021;-66
2022/12/02 01:51:06;;;;;;;;;;;;;;;7.52;73.42;95464.63;5113602;28;1139;-66
2022/12/02 01:53:33;;;;;;;;;;;;;;;7.47;73.23;95472.16;5113368;28;1988;-66
2022/12/02 01:55:59;;;;;;;;;;;;;;;7.45;73.57;95471.44;5113465;28;1004;-66
2022/12/02 01:58:27;;;;;;;;;;;;;;;7.46;73.40;95470.47;5115225;28;1107;-66
2022/12/02 02:00:53;;;;;;;;;;;;;;;7.42;73.29;95478.72;5117153;28;1065;-65
2022/12/02 02:03:19;;;;;;;;;;;;;;;7.35;73.28;95474.91;5117058;28;1069;-65
2022/12/02 02:05:46;;;;;;;;;;;;;;;7.29;73.60;95487.91;5117216;28;1043;-65
2022/12/02 02:08:12;;;;;;;;;;;;;;;7.28;73.46;95488.88;5117167;28;965;-66
2022/12/02 02:10:39;;;;;;;;;;;;;;;7.31;73.82;95485.97;5117087;28;977;-66
2022/12/02 02:13:07;;;;;;;;;;;;;;;7.27;73.87;95484.53;5116878;28;1983;-65
2022/12/02 02:15:33;;;;;;;;;;;;;;;7.22;73.88;95488.41;5116828;28;1230;-66
2022/12/02 02:18:00;;;;;;;;;;;;;;;7.17;74.09;95488.00;5117067;28;958;-66
2022/12/02 02:20:26;;;;;;;;;;;;;;;7.16;73.97;95482.78;5116938;28;1166;-66
2022/12/02 02:23:00;;;;;;;;;;;;;;;7.09;73.84;95489.63;5116759;28;937;-66
2022/12/02 02:25:26;;;;;;;;;;;;;;;7.00;73.84;95489.44;5116741;28;1004;-65
2022/12/02 02:27:56;;;;;;;;;;;;;;;6.95;73.98;95491.63;5116621;28;1041;-66
2022/12/02 02:30:22;;;;;;;;;;;;;;;6.69;75.21;95488.50;5116794;28;1008;-66
2022/12/02 02:32:49;;;;;;;;;;;;;;;6.80;74.47;95488.44;5116703;28;1993;-66
2022/12/02 02:35:16;;;;;;;;;;;;;;;6.88;74.11;95495.78;5116420;28;1116;-65
2022/12/02 02:37:42;;;;;;;;;;;;;;;6.94;74.09;95494.41;5116626;28;1111;-66
2022/12/02 02:40:10;;;;;;;;;;;;;;;6.92;73.45;95499.84;5116401;28;1129;-66
2022/12/02 02:42:36;;;;;;;;;;;;;;;6.94;73.52;95499.72;5116252;28;1049;-66
2022/12/02 02:45:02;;;;;;;;;;;;;;;6.93;73.65;95495.41;5116283;28;1053;-66
2022/12/02 02:47:29;;;;;;;;;;;;;;;6.91;73.75;95492.88;5116363;28;969;-66
2022/12/02 02:49:56;;;;;;;;;;;;;;;6.77;73.71;95496.72;5116369;28;1063;-66
2022/12/02 02:52:21;;;;;;;;;;;;;;;6.69;73.91;95493.81;5116166;28;1985;-66
2022/12/02 02:54:47;;;;;;;;;;;;;;;6.70;73.95;95490.22;5116118;28;1112;-66
2022/12/02 02:57:14;;;;;;;;;;;;;;;6.72;74.08;95485.63;5097890;28;988;-66
2022/12/02 02:59:40;;;;;;;;;;;;;;;6.72;74.34;95496.25;5116042;28;1101;-66
2022/12/02 03:02:08;;;;;;;;;;;;;;;6.80;74.06;95492.94;5115953;28;1045;-66
2022/12/02 03:04:35;;;;;;;;;;;;;;;6.74;74.76;95501.44;5116020;28;992;-66
2022/12/02 03:07:01;;;;;;;;;;;;;;;6.62;74.93;95498.84;5115952;28;1049;-66
2022/12/02 03:09:27;;;;;;;;;;;;;;;6.77;74.68;95506.47;5114788;28;1037;-66
2022/12/02 03:11:54;;;;;;;;;;;;;;;6.85;74.28;95504.03;5115736;28;1980;-66
2022/12/02 03:14:21;;;;;;;;;;;;;;;6.91;73.86;95508.81;5115648;28;1097;-66
2022/12/02 03:16:48;;;;;;;;;;;;;;;6.93;73.86;95508.69;5115651;28;1087;-66
2022/12/02 03:19:14;;;;;;;;;;;;;;;6.91;73.66;95510.66;5115728;28;1033;-66
2022/12/02 03:21:41;;;;;;;;;;;;;;;6.88;73.99;95516.22;5115579;28;1064;-66
2022/12/02 03:24:07;;;;;;;;;;;;;;;6.83;74.05;95512.13;5097579;28;1580;-67
2022/12/02 03:26:34;;;;;;;;;;;;;;;6.85;73.76;95506.69;5115477;28;1041;-68
2022/12/02 03:29:01;;;;;;;;;;;;;;;6.83;73.68;95516.63;5115520;28;1601;-67
2022/12/02 03:31:27;;;;;;;;;;;;;;;6.80;74.25;95507.06;5115368;28;968;-68
2022/12/02 03:33:55;;;;;;;;;;;;;;;6.60;74.86;95514.06;5115227;28;1913;-68
2022/12/02 03:36:23;;;;;;;;;;;;;;;6.44;75.75;95522.44;5115224;28;1123;-67
2022/12/02 03:38:49;;;;;;;;;;;;;;;6.69;74.97;95515.09;5097222;28;1162;-68
2022/12/02 03:41:16;;;;;;;;;;;;;;;6.82;74.30;95514.91;5115225;28;957;-68
2022/12/02 03:43:44;;;;;;;;;;;;;;;6.83;73.80;95516.63;5133078;27;1321;-68
2022/12/02 03:46:11;;;;;;;;;;;;;;;6.81;74.17;95515.88;5117645;27;1089;-68
2022/12/02 03:48:38;;;;;;;;;;;;;;;6.81;74.27;95516.72;5117698;27;946;-67
2022/12/02 03:51:06;;;;;;;;;;;;;;;6.80;74.06;95516.84;5135596;27;1112;-68
2022/12/02 03:53:33;;;;;;;;;;;;;;;6.77;73.98;95523.28;5135299;27;1987;-68
2022/12/02 03:56:04;;;;;;;;;;;;;;;6.73;73.69;95521.81;5135624;27;1463;-68
2022/12/02 03:58:36;;;;;;;;;;;;;;;6.61;74.96;95522.88;5117237;27;1557;-68
2022/12/02 04:01:04;;;;;;;;;;;;;;;6.73;74.34;95521.00;5117364;27;1100;-68
2022/12/02 04:03:31;;;;;;;;;;;;;;;6.65;73.96;95513.66;5135269;27;1112;-68
2022/12/02 04:05:58;;;;;;;;;;;;;;;6.56;74.08;95522.41;5135275;27;961;-68
2022/12/02 04:08:24;;;;;;;;;;;;;;;6.56;74.37;95522.41;5135128;27;1543;-68
2022/12/02 04:10:51;;;;;;;;;;;;;;;6.49;74.96;95527.38;5134438;27;1539;-68
2022/12/02 04:13:17;;;;;;;;;;;;;;;6.52;75.06;95521.81;5135025;27;1909;-67
2022/12/02 04:15:43;;;;;;;;;;;;;;;6.60;74.82;95523.81;5116827;27;1297;-68
2022/12/02 04:18:09;;;;;;;;;;;;;;;6.68;74.79;95528.50;5116790;27;1088;-68
2022/12/02 04:20:35;;;;;;;;;;;;;;;6.70;74.35;95522.09;5134492;27;1032;-68
2022/12/02 04:23:02;;;;;;;;;;;;;;;6.79;74.16;95528.44;5116826;27;1037;-68
2022/12/02 04:25:29;;;;;;;;;;;;;;;6.78;73.63;95522.28;5116788;27;1113;-68
2022/12/02 04:27:56;;;;;;;;;;;;;;;6.71;73.87;95523.78;5116838;27;1021;-68
2022/12/02 04:30:23;;;;;;;;;;;;;;;6.70;73.58;95526.59;5134846;27;1136;-67
2022/12/02 04:32:49;;;;;;;;;;;;;;;6.64;73.80;95525.28;5116636;27;2359;-67
2022/12/02 04:35:15;;;;;;;;;;;;;;;6.62;73.71;95530.72;5134599;27;1127;-67
2022/12/02 04:37:41;;;;;;;;;;;;;;;6.50;74.42;95531.72;5135035;27;1357;-67
2022/12/02 04:40:08;;;;;;;;;;;;;;;6.23;76.12;95532.19;5115889;27;1207;-67
2022/12/02 04:42:34;;;;;;;;;;;;;;;6.40;75.20;95539.59;5096135;28;1163;-67
2022/12/02 04:45:00;;;;;;;;;;;;;;;6.60;74.32;95537.09;5114040;28;1054;-67
2022/12/02 04:47:26;;;;;;;;;;;;;;;6.57;73.28;95540.03;5095994;28;1398;-67
2022/12/02 04:49:52;;;;;;;;;;;;;;;6.42;73.70;95544.78;5113995;28;950;-67
2022/12/02 04:52:18;;;;;;;;;;;;;;;6.29;74.64;95547.59;5095782;28;1910;-67
2022/12/02 04:54:44;;;;;;;;;;;;;;;6.30;75.32;95551.97;5114199;28;1052;-67
2022/12/02 04:57:11;;;;;;;;;;;;;;;6.41;74.75;95549.28;5096030;28;965;-67
2022/12/02 04:59:37;;;;;;;;;;;;;;;6.34;74.98;95561.38;5113824;28;1085;-66
2022/12/02 05:02:03;;;;;;;;;;;;;;;6.50;74.05;95557.44;5095834;28;1065;-67
2022/12/02 05:04:30;;;;;;;;;;;;;;;6.54;73.60;95566.84;5095761;28;1113;-68
2022/12/02 05:06:56;;;;;;;;;;;;;;;6.52;73.32;95568.78;5113779;28;1152;-67
2022/12/02 05:09:23;;;;;;;;;;;;;;;6.40;73.47;95568.81;5095700;28;1117;-67
2022/12/02 05:11:49;;;;;;;;;;;;;;;6.34;73.56;95576.47;5114009;28;1037;-66
2022/12/02 05:14:16;;;;;;;;;;;;;;;6.35;73.53;95573.66;5113679;28;1123;-67
2022/12/02 05:16:42;;;;;;;;;;;;;;;6.38;73.51;95581.38;5113572;28;1222;-67
2022/12/02 05:19:09;;;;;;;;;;;;;;;6.42;73.33;95585.47;5113716;28;1061;-67
2022/12/02 05:21:35;;;;;;;;;;;;;;;6.42;73.21;95571.34;5095941;28;965;-67
2022/12/02 05:24:01;;;;;;;;;;;;;;;6.37;73.52;95582.34;5113905;28;957;-67
2022/12/02 05:26:28;;;;;;;;;;;;;;;6.25;74.12;95572.72;5095542;28;1065;-66
2022/12/02 05:28:54;;;;;;;;;;;;;;;6.27;74.44;95576.09;5113614;28;1013;-68
2022/12/02 05:31:21;;;;;;;;;;;;;;;6.41;73.56;95577.63;5113454;28;1198;-68
2022/12/02 05:33:47;;;;;;;;;;;;;;;6.43;73.19;95587.19;5116168;28;1906;-66
2022/12/02 05:36:13;;;;;;;;;;;;;;;6.36;73.38;95591.28;5117550;28;1065;-68
2022/12/02 05:38:41;;;;;;;;;;;;;;;6.20;74.25;95598.81;5099420;28;1697;-66
2022/12/02 05:41:08;;;;;;;;;;;;;;;6.15;74.75;95593.03;5117599;28;1131;-68
2022/12/02 05:43:39;;;;;;;;;;;;;;;6.20;74.29;95596.16;5117629;28;1021;-68
2022/12/02 05:46:14;;;;;;;;;;;;;;;6.20;73.79;95588.19;5117622;28;972;-67
2022/12/02 05:48:41;;;;;;;;;;;;;;;6.25;73.44;95597.47;5117739;27;1361;-67
2022/12/02 05:51:11;;;;;;;;;;;;;;;6.01;74.12;95597.66;5119737;27;1112;-66
2022/12/02 05:53:40;;;;;;;;;;;;;;;6.03;74.22;95595.72;5137814;27;1909;-66
2022/12/02 05:56:11;;;;;;;;;;;;;;;6.08;74.01;95595.31;5138012;27;997;-65
2022/12/02 05:58:40;;;;;;;;;;;;;;;6.26;72.84;95598.34;5137731;27;1561;-66
2022/12/02 06:01:17;;;;;;;;;;;;;;;6.22;72.47;95611.00;5137710;27;1048;-66
2022/12/02 06:03:43;;;;;;;;;;;;;;;5.94;73.90;95611.47;5137731;27;1246;-65
2022/12/02 06:06:09;;;;;;;;;;;;;;;5.92;74.25;95614.25;5137658;27;1089;-65
2022/12/02 06:08:36;;;;;;;;;;;;;;;6.12;73.17;95617.16;5137710;27;997;-66
2022/12/02 06:11:13;;;;;;;;;;;;;;;6.22;72.33;95615.44;5119447;27;1057;-65
2022/12/02 06:13:39;;;;;;;;;;;;;;;6.34;71.28;95619.78;5137389;27;1959;-66
2022/12/02 06:16:06;;;;;;;;;;;;;;;6.34;71.00;95622.44;5137255;27;1443;-66
2022/12/02 06:18:34;;;;;;;;;;;;;;;6.35;71.26;95626.78;5137450;27;1013;-65
2022/12/02 06:21:11;;;;;;;;;;;;;;;6.52;71.27;95613.94;5137359;27;1041;-67
2022/12/02 06:23:42;;;;;;;;;;;;;;;6.65;70.49;95619.94;5137300;27;1515;-66
2022/12/02 06:26:08;;;;;;;;;;;;;;;6.55;71.20;95619.03;5119060;27;1044;-66
2022/12/02 06:28:35;;;;;;;;;;;;;;;6.55;71.76;95624.34;5137164;27;1065;-65
2022/12/02 06:31:13;;;;;;;;;;;;;;;6.63;71.78;95629.88;5137168;27;1108;-66
2022/12/02 06:33:40;;;;;;;;;;;;;;;6.69;71.94;95626.69;5119012;27;1909;-66
2022/12/02 06:36:10;;;;;;;;;;;;;;;6.79;71.09;95630.31;5137220;27;968;-65
2022/12/02 06:38:41;;;;;;;;;;;;;;;6.77;71.26;95632.25;5130884;27;1164;-66
2022/12/02 06:41:19;;;;;;;;;;;;;;;6.78;70.82;95628.59;5116742;28;965;-67
2022/12/02 06:45:03;;;;;;;;;;;;;;;6.81;70.85;95630.16;5115864;28;989;-67
2022/12/02 06:46:32;;;;;;;;;;;;;;;6.79;71.23;95637.41;5116124;28;1024;-65
2022/12/02 06:48:59;;;;;;;;;;;;;;;6.79;71.69;95634.75;5116320;28;962;-67
2022/12/02 06:51:25;;;;;;;;;;;;;;;6.93;71.17;95633.63;5116156;28;1271;-67
2022/12/02 06:53:51;;;;;;;;;;;;;;;7.00;71.47;95642.78;5098033;28;1991;-67
2022/12/02 06:56:26;;;;;;;;;;;;;;;7.04;71.51;95636.25;5116244;28;993;-67
2022/12/02 06:58:52;;;;;;;;;;;;;;;7.08;71.35;95634.19;5116200;28;1021;-66
2022/12/02 07:01:18;;;;;;;;;;;;;;;7.15;71.20;95636.22;5116042;28;1124;-67
2022/12/02 07:03:59;;;;;;;;;;;;;;;7.42;70.38;95626.88;5115991;28;981;-67
2022/12/02 07:06:27;;;;;;;;;;;;;;;7.69;69.36;95636.13;5116195;28;1051;-67
2022/12/02 07:09:01;;;;;;;;;;;;;;;7.97;68.74;95638.09;5115924;28;1598;-67
2022/12/02 07:14:18;;;;;;;;;;;;;;;9.02;65.15;95639.50;5115644;28;1976;-67
2022/12/02 07:16:44;;;;;;;;;;;;;;;9.35;64.27;95642.75;5115706;28;1080;-68
2022/12/02 07:19:14;;;;;;;;;;;;;;;9.59;63.86;95644.97;5115900;28;933;-68
2022/12/02 07:21:41;;;;;;;;;;;;;;;9.61;63.37;95644.81;5116126;28;1042;-68
2022/12/02 07:24:09;;;;;;;;;;;;;;;9.59;63.15;95642.28;5115627;28;1095;-68
2022/12/02 07:26:35;;;;;;;;;;;;;;;9.49;63.37;95647.66;5115503;28;965;-68
2022/12/02 07:29:01;;;;;;;;;;;;;;;9.48;63.15;95655.78;5097471;28;1103;-68
2022/12/02 07:31:29;;;;;;;;;;;;;;;9.61;63.20;95655.50;5115402;28;1103;-67
2022/12/02 07:33:55;;;;;;;;;;;;;;;9.72;61.96;95655.34;5115336;28;2013;-67
2022/12/02 07:36:21;;;;;;;;;;;;;;;9.51;62.56;95661.69;5115453;28;957;-67
2022/12/02 07:38:47;;;;;;;;;;;;;;;9.43;62.87;95660.72;5115249;28;1156;-66
2022/12/02 07:41:13;;;;;;;;;;;;;;;9.47;63.23;95665.63;5115242;28;993;-67
2022/12/02 07:43:39;;;;;;;;;;;;;;;9.47;63.59;95665.63;5115131;28;1119;-66
2022/12/02 07:46:05;;;;;;;;;;;;;;;9.59;62.77;95671.66;5097349;28;1047;-67
2022/12/02 07:48:31;;;;;;;;;;;;;;;9.68;63.00;95675.31;5115094;28;969;-66
2022/12/02 07:50:57;;;;;;;;;;;;;;;9.74;61.58;95672.06;5097007;28;1104;-67
2022/12/02 07:53:23;;;;;;;;;;;;;;;9.94;62.04;95675.53;5114935;28;1906;-67
2022/12/02 07:55:49;;;;;;;;;;;;;;;9.94;61.53;95678.19;5114611;28;1056;-67
2022/12/02 07:58:15;;;;;;;;;;;;;;;9.96;61.39;95669.06;5114754;28;1222;-67
2022/12/02 08:00:41;;;;;;;;;;;;;;;9.99;61.80;95667.09;5115157;28;949;-67
2022/12/02 08:03:07;;;;;;;;;;;;;;;9.88;61.75;95671.59;5114975;28;1024;-68
2022/12/02 08:05:33;;;;;;;;;;;;;;;9.87;62.31;95677.13;5114718;28;1049;-67
2022/12/02 08:07:59;;;;;;;;;;;;;;;10.02;62.02;95677.50;5114786;28;1041;-68
2022/12/02 08:10:25;;;;;;;;;;;;;;;10.18;60.89;95674.22;5114652;28;1147;-67
2022/12/02 08:12:51;;;;;;;;;;;;;;;10.21;60.56;95682.78;5114521;28;1906;-68
2022/12/02 08:15:17;;;;;;;;;;;;;;;10.15;60.82;95686.03;5114489;28;1259;-68
2022/12/02 08:17:44;;;;;;;;;;;;;;;10.20;60.49;95680.25;5114768;28;1038;-67
2022/12/02 08:20:11;;;;;;;;;;;;;;;10.32;60.80;95682.63;5114711;28;1255;-68
2022/12/02 08:22:37;;;;;;;;;;;;;;;10.56;60.59;95686.59;5096482;28;1028;-68
2022/12/02 08:25:03;;;;;;;;;;;;;;;10.85;59.67;95685.59;5096430;28;1057;-67
2022/12/02 08:27:29;;;;;;;;;;;;;;;11.23;59.04;95684.53;5114319;28;977;-67
2022/12/02 08:29:55;;;;;;;;;;;;;;;11.64;57.55;95690.25;5114604;28;1060;-68
2022/12/02 08:32:21;;;;;;;;;;;;;;;11.94;56.63;95690.84;5114373;28;1902;-68
2022/12/02 08:34:47;;;;;;;;;;;;;;;12.24;56.53;95686.88;5114275;28;1100;-67
2022/12/02 08:37:14;;;;;;;;;;;;;;;12.25;54.59;95683.16;5114044;28;1077;-67
2022/12/02 08:39:40;;;;;;;;;;;;;;;12.06;54.13;95678.88;5114101;28;1595;-67
2022/12/02 08:42:06;;;;;;;;;;;;;;;11.50;55.47;95678.25;5114070;28;1024;-67
2022/12/02 08:44:34;;;;;;;;;;;;;;;11.57;56.15;95682.97;5096264;28;1085;-66
2022/12/02 08:47:00;;;;;;;;;;;;;;;11.73;54.27;95680.44;5114032;28;1021;-67
2022/12/02 08:49:26;;;;;;;;;;;;;;;11.22;55.78;95679.31;5113884;28;1124;-66
2022/12/02 08:51:52;;;;;;;;;;;;;;;11.01;56.99;95680.44;5096050;28;1001;-66
2022/12/02 08:54:18;;;;;;;;;;;;;;;11.24;56.31;95685.38;5113824;28;1913;-67
2022/12/02 08:56:45;;;;;;;;;;;;;;;11.47;56.44;95683.06;5113871;28;1041;-67
2022/12/02 08:59:11;;;;;;;;;;;;;;;12.05;55.01;95687.09;5113885;28;1297;-67
2022/12/02 09:01:37;;;;;;;;;;;;;;;12.26;53.62;95676.81;5114029;28;976;-67
2022/12/02 09:04:03;;;;;;;;;;;;;;;13.01;51.07;95688.72;5113810;28;1100;-67
2022/12/02 09:06:30;;;;;;;;;;;;;;;14.00;49.70;95684.34;5113780;28;1036;-67
2022/12/02 09:08:55;;;;;;;;;;;;;;;14.97;48.55;95692.38;5113183;28;1027;-67
2022/12/02 09:11:21;;;;;;;;;;;;;;;14.91;46.71;95691.22;5113566;28;1030;-66
2022/12/02 09:13:47;;;;;;;;;;;;;;;14.20;48.79;95685.66;5113895;28;1994;-66
2022/12/02 09:16:13;;;;;;;;;;;;;;;13.50;49.93;95678.13;5113397;28;1213;-67
2022/12/02 09:18:39;;;;;;;;;;;;;;;13.26;52.15;95671.69;5113601;28;1099;-67
2022/12/02 09:21:05;;;;;;;;;;;;;;;12.78;52.62;95677.75;5113638;28;1264;-67
2022/12/02 09:23:31;;;;;;;;;;;;;;;12.56;53.32;95679.16;5113562;28;1024;-66
2022/12/02 09:25:57;;;;;;;;;;;;;;;12.33;53.46;95677.03;5113490;28;1057;-67
2022/12/02 09:28:24;;;;;;;;;;;;;;;12.30;54.34;95677.34;5113722;28;1051;-66
2022/12/02 09:30:50;;;;;;;;;;;;;;;12.44;55.04;95670.53;5113561;28;1137;-67
2022/12/02 09:33:16;;;;;;;;;;;;;;;12.43;54.98;95677.75;5113565;28;1996;-66
2022/12/02 09:35:42;;;;;;;;;;;;;;;12.82;54.12;95677.25;5095438;28;1026;-67
2022/12/02 09:38:08;;;;;;;;;;;;;;;14.28;50.27;95667.84;5113501;28;1156;-67
2022/12/02 09:40:34;;;;;;;;;;;;;;;14.71;48.94;95677.31;5113328;28;965;-67
2022/12/02 09:43:01;;;;;;;;;;;;;;;15.52;46.97;95679.78;5113644;28;1036;-67
2022/12/02 09:45:27;;;;;;;;;;;;;;;17.53;43.72;95684.47;5113576;28;1028;-67
2022/12/02 09:47:54;;;;;;;;;;;;;;;17.37;43.06;95680.94;5113555;28;1056;-67
2022/12/02 09:50:21;;;;;;;;;;;;;;;17.82;42.16;95674.56;5113407;28;1012;-67
2022/12/02 09:52:47;;;;;;;;;;;;;;;17.58;42.70;95675.75;5113222;28;1933;-68
2022/12/02 09:55:14;;;;;;;;;;;;;;;16.46;44.09;95669.53;5113167;28;1012;-67
2022/12/02 09:57:41;;;;;;;;;;;;;;;15.84;46.14;95661.69;5113542;28;977;-67
2022/12/02 10:00:09;;;;;;;;;;;;;;;14.89;48.51;95658.25;5095187;28;1091;-67
2022/12/02 10:02:35;;;;;;;;;;;;;;;14.16;50.61;95644.00;5113324;28;1012;-67
2022/12/02 10:05:16;;;;;;;;;;;;;;;14.66;49.80;95651.94;5113233;28;1104;-67
2022/12/02 10:07:43;;;;;;;;;;;;;;;15.22;47.94;95653.50;5113137;28;1085;-67
2022/12/02 10:10:10;;;;;;;;;;;;;;;16.80;44.26;95662.75;5113396;28;1029;-67
2022/12/02 10:12:36;;;;;;;;;;;;;;;17.77;42.24;95667.00;5113177;28;1901;-67
2022/12/02 10:15:03;;;;;;;;;;;;;;;17.67;42.11;95664.63;5113294;28;1044;-67
2022/12/02 10:17:29;;;;;;;;;;;;;;;17.25;42.94;95660.84;5113135;28;1029;-67
2022/12/02 10:19:55;;;;;;;;;;;;;;;20.18;38.81;95677.28;5115665;28;1222;-68
2022/12/02 10:22:21;;;;;;;;;;;;;;;18.90;39.67;95670.63;5098494;28;1116;-67
2022/12/02 10:24:48;;;;;;;;;;;;;;;19.14;40.21;95664.91;5116695;28;1104;-67
2022/12/02 10:27:27;;;;;;;;;;;;;;;17.58;41.69;95651.44;5116747;28;1032;-67
2022/12/02 10:29:53;;;;;;;;;;;;;;;15.57;46.62;95642.34;5116631;28;1140;-67
2022/12/02 10:32:23;;;;;;;;;;;;;;;14.43;49.37;95637.34;5116507;28;1909;-67
2022/12/02 10:35:04;;;;;;;;;;;;;;;14.50;50.16;95642.91;5116480;28;1097;-67
2022/12/02 10:37:31;;;;;;;;;;;;;;;15.25;48.67;95649.63;5116573;28;997;-67
2022/12/02 10:40:08;;;;;;;;;;;;;;;15.52;47.69;95652.84;5116497;28;1157;-67
2022/12/02 10:42:34;;;;;;;;;;;;;;;14.36;49.91;95641.78;5116329;28;1053;-67
2022/12/02 10:45:12;;;;;;;;;;;;;;;13.96;51.64;95635.47;5116326;28;1029;-67
2022/12/02 10:47:39;;;;;;;;;;;;;;;13.59;52.42;95630.63;5116254;28;946;-67
2022/12/02 10:50:14;;;;;;;;;;;;;;;15.53;48.33;95641.03;5116205;28;1025;-67
2022/12/02 10:52:46;;;;;;;;;;;;;;;15.94;47.04;95638.03;5116344;28;1979;-67
2022/12/02 10:55:13;;;;;;;;;;;;;;;15.38;47.69;95633.69;5116012;28;1217;-67
2022/12/02 10:57:42;;;;;;;;;;;;;;;15.52;47.68;95642.06;5116073;28;1198;-67
2022/12/02 11:00:16;;;;;;;;;;;;;;;14.53;49.58;95639.88;5116000;28;1065;-67
2022/12/02 11:02:47;;;;;;;;;;;;;;;16.17;46.70;95641.50;5116186;28;1048;-67
2022/12/02 11:05:16;;;;;;;;;;;;;;;15.60;47.42;95636.59;5116032;28;940;-67
2022/12/02 11:08:03;;;;;;;;;;;;;;;15.29;48.49;95632.09;5116037;28;973;-67
2022/12/02 11:10:33;;;;;;;;;;;;;;;14.89;49.68;95630.47;5115805;28;1004;-67
2022/12/02 11:13:03;;;;;;;;;;;;;;;13.78;51.79;95622.19;5115978;28;1914;-67
2022/12/02 11:15:35;;;;;;;;;;;;;;;12.88;54.48;95614.03;5115640;28;1104;-67
2022/12/02 11:18:02;;;;;;;;;;;;;;;12.58;55.67;95621.69;5115867;28;977;-67
2022/12/02 11:20:28;;;;;;;;;;;;;;;12.67;55.98;95627.88;5097514;28;1045;-67
2022/12/02 11:23:00;;;;;;;;;;;;;;;12.01;58.52;95621.38;5115522;28;1096;-67
2022/12/02 11:25:41;;;;;;;;;;;;;;;11.61;60.22;95630.78;5115484;28;1092;-66
2022/12/02 11:28:16;;;;;;;;;;;;;;;11.56;59.55;95639.28;5115595;28;993;-67
2022/12/02 11:30:42;;;;;;;;;;;;;;;11.77;59.54;95633.59;5114706;28;1053;-67
2022/12/02 11:33:09;;;;;;;;;;;;;;;12.26;57.55;95639.28;5115439;28;2000;-67
2022/12/02 11:35:54;;;;;;;;;;;;;;;12.58;56.47;95639.63;5115243;28;1032;-67
2022/12/02 11:38:23;;;;;;;;;;;;;;;12.57;55.44;95633.38;5115054;28;1153;-67
2022/12/02 11:40:49;;;;;;;;;;;;;;;12.60;56.20;95632.25;5115363;28;1012;-66
2022/12/02 11:43:47;;;;;;;;;;;;;;;12.63;56.33;95635.41;5115100;28;1315;-67
2022/12/02 11:46:14;;;;;;;;;;;;;;;12.73;56.89;95635.31;5059332;28;1204;-67
2022/12/02 11:48:49;;;;;;;;;;;;;;;12.64;57.70;95630.91;5115064;28;1055;-67
2022/12/02 11:51:42;;;;;;;;;;;;;;;12.47;58.39;95636.22;5114980;28;1080;-67
2022/12/02 11:54:12;;;;;;;;;;;;;;;12.38;60.04;95630.97;5110806;28;1993;-67
2022/12/02 11:56:39;;;;;;;;;;;;;;;12.34;59.69;95625.09;5114934;28;1048;-67
2022/12/02 11:59:23;;;;;;;;;;;;;;;12.35;59.29;95623.22;5115135;28;962;-67
2022/12/02 12:01:49;;;;;;;;;;;;;;;12.47;58.69;95616.59;5114971;28;1029;-67
2022/12/02 12:04:26;;;;;;;;;;;;;;;12.34;59.32;95617.03;5114677;28;1056;-67
2022/12/02 12:06:56;;;;;;;;;;;;;;;12.37;59.45;95621.22;5114726;28;977;-67
2022/12/02 12:09:22;;;;;;;;;;;;;;;12.27;60.42;95616.00;5114500;28;1061;-66
2022/12/02 12:12:05;;;;;;;;;;;;;;;12.28;59.69;95615.84;5114839;28;1051;-66
2022/12/02 12:14:31;;;;;;;;;;;;;;;12.33;60.09;95626.09;5114358;28;1907;-67
2022/12/02 12:20:34;;;;;;;;;;;;;;;12.27;60.27;95618.66;5114519;28;1032;-66
2022/12/02 12:23:33;;;;;;;;;;;;;;;12.37;59.61;95615.88;5114545;28;997;-67
2022/12/02 12:25:59;;;;;;;;;;;;;;;12.26;60.61;95619.69;5058729;28;1360;-67
2022/12/02 12:28:26;;;;;;;;;;;;;;;12.17;61.50;95618.78;5114479;28;996;-67
2022/12/02 12:30:52;;;;;;;;;;;;;;;11.71;62.27;95615.47;5114454;28;1028;-66
2022/12/02 12:33:18;;;;;;;;;;;;;;;11.52;62.95;95609.31;5114241;28;1902;-67
2022/12/02 12:35:44;;;;;;;;;;;;;;;11.63;63.30;95621.63;5114329;28;997;-66
2022/12/02 12:38:10;;;;;;;;;;;;;;;11.72;62.41;95614.47;5114068;28;1177;-67
2022/12/02 12:40:37;;;;;;;;;;;;;;;11.73;62.86;95611.63;5095930;28;1072;-67
2022/12/02 12:43:03;;;;;;;;;;;;;;;11.59;62.71;95622.94;5114051;28;1127;-67
2022/12/02 12:45:29;;;;;;;;;;;;;;;11.29;63.32;95622.34;5114022;28;1048;-66
2022/12/02 12:47:55;;;;;;;;;;;;;;;11.36;63.42;95614.53;5095951;28;1208;-67
2022/12/02 12:50:21;;;;;;;;;;;;;;;11.39;63.98;95622.25;5095946;28;1032;-67
2022/12/02 12:52:47;;;;;;;;;;;;;;;11.35;63.66;95612.03;5113890;28;2001;-66
2022/12/02 12:55:13;;;;;;;;;;;;;;;11.08;64.13;95624.50;5113836;28;1312;-67
2022/12/02 12:57:39;;;;;;;;;;;;;;;11.18;63.98;95625.25;5114079;28;958;-67
2022/12/02 13:00:06;;;;;;;;;;;;;;;11.36;63.59;95614.53;5095865;28;1120;-67
2022/12/02 13:02:32;;;;;;;;;;;;;;;11.40;63.71;95617.72;5113814;28;1107;-67
2022/12/02 13:04:58;;;;;;;;;;;;;;;11.39;64.18;95608.03;5113838;28;1041;-66
2022/12/02 13:07:24;;;;;;;;;;;;;;;11.33;63.45;95609.50;5113616;28;1158;-67
2022/12/02 13:09:50;;;;;;;;;;;;;;;11.35;63.36;95607.50;5113743;28;1148;-67
2022/12/02 13:12:16;;;;;;;;;;;;;;;11.37;63.83;95613.53;5095553;28;1978;-66
2022/12/02 13:14:42;;;;;;;;;;;;;;;11.26;64.37;95621.81;5113846;28;1018;-67
2022/12/02 13:17:08;;;;;;;;;;;;;;;11.24;64.74;95618.44;5113793;28;1125;-66